createdAt,value
2022-10-03T00:02:10.869Z,99.90
2022-10-03T00:04:47.480Z,99.90
2022-10-03T00:07:34.088Z,99.90
2022-10-03T00:10:18.357Z,99.90
2022-10-03T00:13:03.445Z,99.90
2022-10-03T00:15:40.505Z,99.90
2022-10-03T00:18:25.205Z,99.90
2022-10-03T00:21:22.235Z,99.90
2022-10-03T00:24:02.422Z,99.90
2022-10-03T00:26:46.595Z,99.90
2022-10-03T00:29:23.988Z,99.90
2022-10-03T00:32:05.035Z,99.90
2022-10-03T00:34:49.979Z,99.90
2022-10-03T00:37:33.100Z,99.90
2022-10-03T00:40:32.814Z,99.90
2022-10-03T00:43:38.880Z,99.90
2022-10-03T00:46:30.028Z,99.90
2022-10-03T00:49:24.104Z,99.90
2022-10-03T00:52:05.276Z,99.90
2022-10-03T00:54:55.258Z,99.90
2022-10-03T00:57:40.602Z,99.90
2022-10-03T01:00:22.906Z,99.90
2022-10-03T01:03:22.627Z,99.90
2022-10-03T01:06:04.726Z,99.90
2022-10-03T01:08:51.365Z,99.90
2022-10-03T01:11:37.230Z,99.90
2022-10-03T01:14:22.507Z,99.90
2022-10-03T01:17:04.843Z,99.90
2022-10-03T01:20:00.514Z,99.90
2022-10-03T01:22:59.249Z,99.90
2022-10-03T01:25:42.725Z,99.90
2022-10-03T01:28:55.062Z,99.90
2022-10-03T01:31:31.606Z,99.90
2022-10-03T01:34:10.374Z,99.90
2022-10-03T01:36:49.992Z,99.90
2022-10-03T01:39:35.143Z,99.90
2022-10-03T01:42:13.368Z,99.90
2022-10-03T01:45:00.224Z,99.90
2022-10-03T01:47:38.598Z,99.90
2022-10-03T01:50:17.486Z,99.90
2022-10-03T01:52:55.334Z,99.90
2022-10-03T01:55:33.387Z,99.90
2022-10-03T01:58:09.330Z,99.90
2022-10-03T02:00:47.831Z,99.90
2022-10-03T02:03:25.454Z,99.90
2022-10-03T02:06:06.858Z,99.90
2022-10-03T02:08:50.019Z,99.90
2022-10-03T02:11:33.449Z,99.90
2022-10-03T02:14:24.534Z,99.90
2022-10-03T02:17:05.514Z,99.90
2022-10-03T02:19:45.927Z,99.90
2022-10-03T02:22:31.559Z,99.90
2022-10-03T02:25:15.888Z,99.90
2022-10-03T02:28:16.451Z,99.90
2022-10-03T02:31:04.510Z,99.90
2022-10-03T02:34:09.980Z,99.90
2022-10-03T02:37:02.655Z,99.90
2022-10-03T02:40:02.847Z,99.90
2022-10-03T02:43:09.001Z,99.90
2022-10-03T02:46:09.216Z,99.90
2022-10-03T02:49:01.612Z,99.90
2022-10-03T02:51:53.759Z,99.90
2022-10-03T02:54:51.949Z,99.90
2022-10-03T02:58:03.712Z,99.90
2022-10-03T03:00:53.427Z,99.90
2022-10-03T03:03:43.425Z,99.90
2022-10-03T03:06:35.878Z,99.90
2022-10-03T03:09:36.645Z,99.90
2022-10-03T03:12:40.495Z,99.90
2022-10-03T03:15:38.930Z,99.90
2022-10-03T03:18:15.775Z,99.90
2022-10-03T03:21:03.280Z,99.90
2022-10-03T03:23:55.337Z,99.90
2022-10-03T03:26:48.652Z,99.90
2022-10-03T03:29:29.298Z,99.90
2022-10-03T03:32:09.393Z,99.90
2022-10-03T03:34:49.496Z,99.90
2022-10-03T03:37:26.345Z,99.90
2022-10-03T03:40:15.888Z,99.90
2022-10-03T03:43:01.524Z,99.90
2022-10-03T03:45:52.545Z,99.90
2022-10-03T03:48:39.840Z,99.90
2022-10-03T03:51:23.918Z,99.90
2022-10-03T03:54:10.650Z,99.90
2022-10-03T03:57:01.498Z,99.90
2022-10-03T03:59:41.775Z,99.90
2022-10-03T04:02:30.934Z,99.90
2022-10-03T04:05:15.224Z,99.90
2022-10-03T04:08:01.890Z,99.90
2022-10-03T04:10:46.222Z,99.90
2022-10-03T04:13:39.789Z,99.90
2022-10-03T04:16:45.601Z,99.90
2022-10-03T04:19:26.251Z,99.90
2022-10-03T04:22:21.433Z,99.90
2022-10-03T04:25:17.369Z,99.90
2022-10-03T04:28:17.017Z,99.90
2022-10-03T04:31:02.716Z,99.90
2022-10-03T04:33:43.425Z,99.90
2022-10-03T04:36:43.205Z,99.90
2022-10-03T04:39:29.355Z,99.90
2022-10-03T04:42:06.708Z,99.90
2022-10-03T04:44:50.021Z,99.90
2022-10-03T04:47:29.463Z,99.90
2022-10-03T04:50:06.881Z,99.90
2022-10-03T04:52:44.352Z,99.90
2022-10-03T04:55:27.655Z,99.90
2022-10-03T04:58:05.353Z,99.90
2022-10-03T05:00:43.447Z,99.90
2022-10-03T05:03:25.181Z,99.90
2022-10-03T05:06:00.259Z,99.90
2022-10-03T05:08:38.884Z,99.90
2022-10-03T05:11:19.096Z,99.90
2022-10-03T05:14:03.762Z,99.90
2022-10-03T05:16:42.357Z,99.90
2022-10-03T05:19:41.749Z,99.90
2022-10-03T05:22:33.329Z,99.90
2022-10-03T05:25:17.550Z,99.90
2022-10-03T05:27:54.596Z,99.90
2022-10-03T05:30:36.684Z,99.90
2022-10-03T05:33:14.471Z,99.90
2022-10-03T05:35:54.016Z,99.90
2022-10-03T05:39:04.850Z,99.90
2022-10-03T05:41:36.569Z,99.90
2022-10-03T05:44:11.797Z,99.90
2022-10-03T05:47:00.650Z,99.90
2022-10-03T05:50:11.659Z,99.90
2022-10-03T05:53:04.926Z,99.90
2022-10-03T05:55:52.434Z,99.90
2022-10-03T05:59:00.336Z,99.90
2022-10-03T06:02:01.413Z,99.90
2022-10-03T06:05:00.777Z,99.90
2022-10-03T06:07:35.859Z,99.90
2022-10-03T06:10:46.831Z,99.90
2022-10-03T06:13:24.324Z,99.90
2022-10-03T06:16:02.177Z,99.90
2022-10-03T06:19:07.472Z,99.90
2022-10-03T06:22:05.165Z,99.90
2022-10-03T06:25:10.887Z,99.90
2022-10-03T06:28:18.500Z,99.90
2022-10-03T06:31:37.817Z,99.90
2022-10-03T06:34:38.295Z,99.90
2022-10-03T06:37:41.091Z,99.90
2022-10-03T06:40:57.450Z,99.90
2022-10-03T06:43:49.314Z,99.90
2022-10-03T06:46:56.099Z,99.90
2022-10-03T06:49:45.944Z,99.90
2022-10-03T06:52:39.248Z,99.90
2022-10-03T06:55:50.328Z,99.90
2022-10-03T06:59:01.917Z,99.90
2022-10-03T07:02:08.489Z,99.90
2022-10-03T07:05:17.242Z,99.90
2022-10-03T07:08:23.118Z,99.90
2022-10-03T07:11:17.226Z,99.90
2022-10-03T07:14:16.947Z,99.90
2022-10-03T07:17:17.701Z,99.90
2022-10-03T07:20:08.679Z,99.90
2022-10-03T07:23:06.338Z,99.90
2022-10-03T07:26:17.931Z,99.90
2022-10-03T07:29:25.979Z,99.90
2022-10-03T07:32:19.279Z,99.90
2022-10-03T07:35:47.530Z,99.90
2022-10-03T07:38:59.872Z,99.90
2022-10-03T07:41:52.537Z,99.90
2022-10-03T07:44:56.212Z,99.90
2022-10-03T07:47:56.060Z,99.90
2022-10-03T07:50:59.737Z,99.90
2022-10-03T07:53:59.385Z,99.90
2022-10-03T07:56:53.015Z,99.90
2022-10-03T08:00:01.502Z,99.90
2022-10-03T08:03:08.071Z,99.90
2022-10-03T08:05:50.686Z,99.90
2022-10-03T08:08:40.814Z,99.90
2022-10-03T08:11:34.087Z,99.90
2022-10-03T08:14:20.891Z,99.90
2022-10-03T08:17:32.362Z,99.90
2022-10-03T08:20:25.676Z,99.90
2022-10-03T08:23:10.727Z,99.90
2022-10-03T08:25:57.390Z,98.90
2022-10-03T08:28:54.184Z,98.50
2022-10-03T08:31:52.755Z,96.50
2022-10-03T08:35:01.796Z,95.30
2022-10-03T08:38:05.615Z,94.10
2022-10-03T08:41:08.232Z,94.50
2022-10-03T08:43:53.272Z,92.00
2022-10-03T08:46:56.094Z,93.10
2022-10-03T08:50:05.256Z,92.00
2022-10-03T08:52:51.647Z,89.60
2022-10-03T08:55:45.646Z,88.20
2022-10-03T08:58:22.700Z,85.60
2022-10-03T09:01:16.367Z,80.90
2022-10-03T09:04:01.093Z,78.00
2022-10-03T09:07:05.453Z,76.60
2022-10-03T09:10:03.752Z,78.10
2022-10-03T09:12:56.544Z,79.30
2022-10-03T09:15:41.951Z,79.40
2022-10-03T09:18:21.840Z,80.80
2022-10-03T09:21:08.184Z,79.60
2022-10-03T09:24:01.915Z,80.50
2022-10-03T09:26:49.525Z,81.40
2022-10-03T09:29:40.295Z,81.70
2022-10-03T09:32:24.873Z,83.90
2022-10-03T09:35:11.405Z,82.30
2022-10-03T09:37:50.096Z,79.80
2022-10-03T09:40:34.584Z,81.00
2022-10-03T09:43:22.797Z,82.50
2022-10-03T09:46:08.393Z,81.70
2022-10-03T09:48:52.055Z,81.00
2022-10-03T09:51:44.824Z,81.50
2022-10-03T09:54:26.727Z,80.70
2022-10-03T09:57:11.322Z,80.40
2022-10-03T09:59:56.591Z,78.90
2022-10-03T10:02:43.728Z,78.30
2022-10-03T10:05:23.157Z,77.90
2022-10-03T10:08:10.797Z,79.00
2022-10-03T10:11:07.385Z,79.20
2022-10-03T10:14:07.240Z,79.90
2022-10-03T10:16:53.031Z,76.30
2022-10-03T10:19:38.139Z,75.40
2022-10-03T10:22:17.594Z,72.60
2022-10-03T10:24:58.949Z,72.70
2022-10-03T10:27:43.695Z,71.60
2022-10-03T10:30:29.532Z,73.20
2022-10-03T10:33:20.023Z,72.10
2022-10-03T10:36:06.930Z,73.20
2022-10-03T10:39:00.384Z,73.10
2022-10-03T10:41:45.084Z,74.80
2022-10-03T10:44:32.728Z,75.20
2022-10-03T10:47:14.178Z,74.20
2022-10-03T10:49:59.378Z,72.20
2022-10-03T10:52:39.927Z,72.20
2022-10-03T10:55:24.638Z,73.50
2022-10-03T10:58:16.986Z,72.30
2022-10-03T11:01:01.773Z,73.30
2022-10-03T11:03:46.615Z,73.70
2022-10-03T11:06:38.221Z,74.10
2022-10-03T11:09:22.985Z,73.00
2022-10-03T11:12:16.661Z,73.80
2022-10-03T11:15:04.089Z,74.30
2022-10-03T11:17:54.603Z,73.20
2022-10-03T11:20:35.782Z,74.00
2022-10-03T11:23:29.714Z,74.80
2022-10-03T11:26:14.213Z,77.10
2022-10-03T11:29:01.613Z,79.40
2022-10-03T11:31:46.341Z,81.10
2022-10-03T11:34:39.087Z,80.20
2022-10-03T11:37:24.585Z,79.70
2022-10-03T11:40:00.200Z,78.60
2022-10-03T11:42:33.514Z,79.60
2022-10-03T11:45:04.103Z,77.80
2022-10-03T11:47:45.475Z,78.20
2022-10-03T11:50:26.342Z,77.80
2022-10-03T11:53:12.301Z,77.80
2022-10-03T11:55:44.292Z,78.60
2022-10-03T11:58:22.975Z,78.60
2022-10-03T12:00:58.195Z,78.20
2022-10-03T12:03:30.318Z,76.80
2022-10-03T12:06:17.136Z,77.00
2022-10-03T12:08:59.052Z,77.20
2022-10-03T12:11:30.360Z,79.00
2022-10-03T12:14:17.862Z,77.30
2022-10-03T12:16:57.765Z,78.50
2022-10-03T12:19:31.578Z,78.00
2022-10-03T12:22:06.366Z,75.90
2022-10-03T12:24:37.968Z,77.50
2022-10-03T12:27:09.940Z,77.20
2022-10-03T12:29:45.890Z,76.10
2022-10-03T12:32:21.568Z,76.10
2022-10-03T12:34:53.200Z,76.80
2022-10-03T12:37:39.306Z,77.60
2022-10-03T12:40:14.887Z,76.50
2022-10-03T12:42:48.255Z,77.50
2022-10-03T12:45:23.160Z,79.10
2022-10-03T12:48:04.456Z,79.70
2022-10-03T12:50:47.301Z,79.20
2022-10-03T12:53:31.722Z,80.10
2022-10-03T12:56:16.710Z,82.00
2022-10-03T12:58:51.164Z,82.30
2022-10-03T13:01:26.153Z,83.50
2022-10-03T13:03:57.084Z,83.80
2022-10-03T13:07:01.685Z,82.70
2022-10-03T13:09:33.759Z,81.60
2022-10-03T13:12:07.312Z,82.40
2022-10-03T13:14:46.409Z,82.80
2022-10-03T13:17:22.147Z,83.30
2022-10-03T13:19:56.859Z,83.40
2022-10-03T13:22:35.053Z,83.50
2022-10-03T13:25:15.739Z,84.10
2022-10-03T13:27:48.758Z,83.40
2022-10-03T13:30:24.185Z,84.10
2022-10-03T13:32:56.202Z,86.00
2022-10-03T13:35:45.917Z,84.70
2022-10-03T13:38:31.959Z,83.60
2022-10-03T13:41:08.871Z,82.70
2022-10-03T13:43:40.055Z,84.10
2022-10-03T13:46:15.964Z,84.40
2022-10-03T13:48:48.275Z,84.50
2022-10-03T13:51:24.998Z,84.30
2022-10-03T13:54:02.935Z,84.30
2022-10-03T13:56:48.400Z,85.20
2022-10-03T13:59:27.288Z,86.80
2022-10-03T14:02:01.840Z,85.20
2022-10-03T14:04:41.712Z,85.30
2022-10-03T14:07:18.410Z,86.80
2022-10-03T14:10:09.754Z,86.60
2022-10-03T14:12:55.702Z,85.50
2022-10-03T14:15:44.185Z,84.90
2022-10-03T14:18:20.220Z,86.10
2022-10-03T14:21:04.837Z,87.00
2022-10-03T14:23:39.599Z,88.00
2022-10-03T14:26:15.684Z,88.20
2022-10-03T14:28:52.910Z,86.00
2022-10-03T14:31:25.412Z,84.20
2022-10-03T14:33:59.162Z,84.40
2022-10-03T14:36:35.959Z,87.10
2022-10-03T14:41:44.430Z,85.80
2022-10-03T14:44:18.954Z,85.70
2022-10-03T14:46:51.586Z,85.30
2022-10-03T14:49:52.406Z,85.00
2022-10-03T14:52:16.932Z,83.50
2022-10-03T14:54:46.825Z,83.30
2022-10-03T14:57:18.311Z,84.50
2022-10-03T14:59:52.693Z,84.90
2022-10-03T15:02:29.649Z,85.20
2022-10-03T15:05:00.434Z,84.10
2022-10-03T15:07:36.702Z,82.80
2022-10-03T15:10:07.621Z,84.10
2022-10-03T15:12:39.799Z,84.30
2022-10-03T15:15:14.179Z,85.10
2022-10-03T15:17:47.735Z,84.20
2022-10-03T15:20:20.824Z,84.00
2022-10-03T15:22:52.103Z,83.80
2022-10-03T15:25:23.737Z,84.60
2022-10-03T15:27:55.093Z,84.80
2022-10-03T15:30:31.778Z,84.60
2022-10-03T15:33:07.872Z,82.40
2022-10-03T15:35:41.020Z,82.50
2022-10-03T15:38:13.916Z,82.60
2022-10-03T15:40:46.602Z,86.00
2022-10-03T15:43:24.493Z,87.10
2022-10-03T15:45:57.363Z,88.00
2022-10-03T15:48:29.448Z,86.70
2022-10-03T15:51:00.212Z,86.60
2022-10-03T15:53:36.505Z,88.50
2022-10-03T15:56:12.193Z,87.60
2022-10-03T15:58:45.518Z,88.00
2022-10-03T16:01:21.775Z,88.00
2022-10-03T16:03:53.839Z,90.00
2022-10-03T16:06:24.837Z,90.70
2022-10-03T16:09:00.262Z,91.10
2022-10-03T16:11:31.543Z,91.30
2022-10-03T16:14:07.993Z,91.70
2022-10-03T16:16:44.166Z,91.50
2022-10-03T16:19:28.990Z,92.20
2022-10-03T16:22:00.395Z,92.30
2022-10-03T16:24:35.535Z,92.20
2022-10-03T16:27:10.195Z,92.80
2022-10-03T16:29:41.785Z,93.10
2022-10-03T16:32:18.905Z,93.00
2022-10-03T16:34:49.414Z,92.60
2022-10-03T16:37:20.723Z,93.40
2022-10-03T16:39:55.711Z,93.80
2022-10-03T16:42:29.198Z,93.70
2022-10-03T16:45:02.192Z,94.10
2022-10-03T16:47:37.332Z,94.70
2022-10-03T16:50:20.143Z,94.70
2022-10-03T16:52:52.340Z,95.10
2022-10-03T16:55:25.521Z,95.40
2022-10-03T16:57:58.213Z,95.70
2022-10-03T17:00:31.476Z,95.70
2022-10-03T17:03:08.734Z,96.30
2022-10-03T17:05:40.754Z,97.00
2022-10-03T17:08:40.180Z,97.10
2022-10-03T17:11:05.241Z,97.70
2022-10-03T17:13:39.248Z,98.30
2022-10-03T17:16:14.032Z,98.50
2022-10-03T17:18:47.983Z,99.20
2022-10-03T17:21:21.958Z,99.70
2022-10-03T17:23:56.166Z,99.90
2022-10-03T17:26:29.476Z,99.90
2022-10-03T17:29:00.671Z,99.90
2022-10-03T17:31:33.135Z,99.90
2022-10-03T17:34:12.119Z,99.90
2022-10-03T17:36:56.650Z,99.90
2022-10-03T17:39:41.493Z,99.90
2022-10-03T17:42:15.265Z,99.90
2022-10-03T17:44:53.200Z,99.90
2022-10-03T17:47:26.824Z,99.90
2022-10-03T17:50:02.949Z,99.90
2022-10-03T17:52:33.028Z,99.90
2022-10-03T17:55:05.147Z,99.90
2022-10-03T17:57:38.654Z,99.90
2022-10-03T18:00:10.196Z,99.90
2022-10-03T18:02:46.578Z,99.90
2022-10-03T18:05:20.606Z,99.90
2022-10-03T18:07:52.743Z,99.90
2022-10-03T18:10:24.171Z,99.90
2022-10-03T18:12:56.492Z,99.90
2022-10-03T18:15:41.491Z,99.90
2022-10-03T18:18:25.268Z,99.90
2022-10-03T18:21:02.375Z,99.90
2022-10-03T18:23:53.688Z,99.90
2022-10-03T18:26:28.302Z,99.90
2022-10-03T18:29:04.087Z,99.90
2022-10-03T18:31:35.399Z,99.90
2022-10-03T18:34:13.754Z,99.90
2022-10-03T18:36:50.146Z,99.90
2022-10-03T18:39:20.636Z,99.90
2022-10-03T18:41:51.433Z,99.90
2022-10-03T18:44:22.137Z,99.90
2022-10-03T18:46:54.797Z,99.90
2022-10-03T18:49:35.184Z,99.90
2022-10-03T18:52:14.052Z,99.90
2022-10-03T18:54:49.956Z,99.90
2022-10-03T18:57:22.942Z,99.90
2022-10-03T18:59:55.751Z,99.90
2022-10-03T19:02:28.702Z,99.90
2022-10-03T19:04:59.977Z,99.90
2022-10-03T19:07:34.240Z,99.90
2022-10-03T19:10:14.622Z,99.90
2022-10-03T19:12:46.133Z,99.90
2022-10-03T19:15:20.833Z,99.90
2022-10-03T19:18:01.550Z,99.90
2022-10-03T19:20:33.167Z,99.90
2022-10-03T19:23:08.920Z,99.90
2022-10-03T19:25:40.442Z,99.90
2022-10-03T19:28:16.284Z,99.90
2022-10-03T19:30:46.724Z,99.90
2022-10-03T19:33:19.807Z,99.90
2022-10-03T19:35:51.092Z,99.90
2022-10-03T19:38:27.793Z,99.90
2022-10-03T19:40:59.184Z,99.90
2022-10-03T19:43:40.598Z,99.90
2022-10-03T19:46:22.626Z,99.90
2022-10-03T19:48:55.701Z,99.90
2022-10-03T19:51:26.525Z,99.90
2022-10-03T19:54:00.271Z,99.90
2022-10-03T19:56:34.004Z,99.90
2022-10-03T19:59:05.637Z,99.90
2022-10-03T20:01:38.714Z,99.90
2022-10-03T20:04:08.973Z,99.90
2022-10-03T20:06:40.765Z,99.90
2022-10-03T20:09:21.265Z,99.90
2022-10-03T20:11:52.934Z,99.90
2022-10-03T20:14:27.138Z,99.90
2022-10-03T20:16:58.952Z,99.90
2022-10-03T20:19:29.897Z,99.90
2022-10-03T20:22:00.554Z,99.90
2022-10-03T20:24:34.741Z,99.90
2022-10-03T20:27:12.373Z,99.90
2022-10-03T20:29:45.926Z,99.90
2022-10-03T20:32:18.083Z,99.90
2022-10-03T20:34:52.843Z,99.90
2022-10-03T20:37:36.525Z,99.90
2022-10-03T20:40:16.416Z,99.90
2022-10-03T20:42:47.764Z,99.90
2022-10-03T20:45:18.661Z,99.90
2022-10-03T20:47:53.975Z,99.90
2022-10-03T20:50:28.153Z,99.90
2022-10-03T20:53:00.485Z,99.90
2022-10-03T20:55:35.161Z,99.90
2022-10-03T20:58:09.147Z,99.90
2022-10-03T21:00:44.676Z,99.90
2022-10-03T21:03:18.462Z,99.90
2022-10-03T21:05:52.153Z,99.90
2022-10-03T21:08:24.350Z,99.90
2022-10-03T21:10:58.826Z,99.90
2022-10-03T21:13:32.850Z,99.90
2022-10-03T21:16:03.879Z,99.90
2022-10-03T21:18:34.812Z,99.90
2022-10-03T21:21:08.223Z,99.90
2022-10-03T21:23:39.889Z,99.90
2022-10-03T21:26:13.446Z,99.90
2022-10-03T21:28:43.329Z,99.90
2022-10-03T21:31:19.719Z,99.90
2022-10-03T21:33:51.588Z,99.90
2022-10-03T21:36:27.965Z,99.90
2022-10-03T21:39:02.320Z,99.90
2022-10-03T21:41:39.951Z,99.90
2022-10-03T21:44:33.036Z,99.90
2022-10-03T21:47:07.239Z,99.90
2022-10-03T21:49:47.683Z,99.90
2022-10-03T21:52:25.537Z,99.90
2022-10-03T21:55:01.349Z,99.90
2022-10-03T21:57:39.469Z,99.90
2022-10-03T22:00:15.159Z,99.90
2022-10-03T22:02:57.507Z,99.90
2022-10-03T22:05:32.351Z,99.90
2022-10-03T22:08:02.444Z,99.90
2022-10-03T22:10:35.133Z,99.90
2022-10-03T22:13:12.074Z,99.90
2022-10-03T22:15:45.765Z,99.90
2022-10-03T22:18:17.723Z,99.90
2022-10-03T22:20:53.225Z,99.90
2022-10-03T22:23:27.624Z,99.90
2022-10-03T22:26:02.468Z,99.90
2022-10-03T22:28:42.253Z,99.90
2022-10-03T22:31:17.475Z,99.90
2022-10-03T22:33:52.759Z,99.90
2022-10-03T22:36:22.699Z,99.90
2022-10-03T22:38:53.837Z,99.90
2022-10-03T22:41:26.737Z,99.90
2022-10-03T22:44:01.420Z,99.90
2022-10-03T22:46:33.413Z,99.90
2022-10-03T22:49:05.828Z,99.90
2022-10-03T22:51:35.927Z,99.90
2022-10-03T22:54:08.029Z,99.90
2022-10-03T22:56:45.735Z,99.90
2022-10-03T22:59:21.442Z,99.90
2022-10-03T23:01:53.206Z,99.90
2022-10-03T23:04:28.281Z,99.90
2022-10-03T23:07:07.255Z,99.90
2022-10-03T23:09:38.837Z,99.90
2022-10-03T23:12:09.347Z,99.90
2022-10-03T23:14:44.250Z,99.90
2022-10-03T23:17:24.916Z,99.90
2022-10-03T23:19:59.794Z,99.90
2022-10-03T23:22:30.246Z,99.90
2022-10-03T23:25:01.728Z,99.90
2022-10-03T23:27:40.355Z,99.90
2022-10-03T23:30:31.134Z,99.90
2022-10-03T23:33:03.646Z,99.90
2022-10-03T23:35:39.298Z,99.90
2022-10-03T23:38:39.241Z,99.90
2022-10-03T23:41:12.915Z,99.90
2022-10-03T23:43:50.809Z,99.90
2022-10-03T23:46:21.799Z,99.90
2022-10-03T23:48:56.770Z,99.90
2022-10-03T23:51:30.434Z,99.90
2022-10-03T23:54:02.737Z,99.90
2022-10-03T23:56:36.848Z,99.90
2022-10-03T23:59:14.704Z,99.90
